sensor_id;sensor_type;location;lat;lon;timestamp;P1;durP1;ratioP1;P2;durP2;ratioP2
61252;SDS011;47127;47.516;8.596;2023-02-01T00:01:21;8.68;;;3.20;;
61252;SDS011;47127;47.516;8.596;2023-02-01T00:03:46;7.30;;;3.35;;
61252;SDS011;47127;47.516;8.596;2023-02-01T00:06:12;10.25;;;4.13;;
61252;SDS011;47127;47.516;8.596;2023-02-01T00:08:38;10.70;;;3.70;;
61252;SDS011;47127;47.516;8.596;2023-02-01T00:11:04;9.20;;;3.92;;
61252;SDS011;47127;47.516;8.596;2023-02-01T00:13:32;8.25;;;3.20;;
61252;SDS011;47127;47.516;8.596;2023-02-01T00:16:33;10.68;;;3.80;;
61252;SDS011;47127;47.516;8.596;2023-02-01T00:19:01;8.40;;;3.63;;
61252;SDS011;47127;47.516;8.596;2023-02-01T00:21:29;9.75;;;3.75;;
61252;SDS011;47127;47.516;8.596;2023-02-01T00:23:55;9.93;;;4.00;;
61252;SDS011;47127;47.516;8.596;2023-02-01T00:26:31;9.23;;;3.75;;
61252;SDS011;47127;47.516;8.596;2023-02-01T00:29:03;7.80;;;4.03;;
61252;SDS011;47127;47.516;8.596;2023-02-01T00:31:30;8.85;;;4.07;;
61252;SDS011;47127;47.516;8.596;2023-02-01T00:33:56;9.32;;;3.53;;
61252;SDS011;47127;47.516;8.596;2023-02-01T00:36:22;10.90;;;4.05;;
61252;SDS011;47127;47.516;8.596;2023-02-01T00:38:47;10.43;;;3.83;;
61252;SDS011;47127;47.516;8.596;2023-02-01T00:41:14;8.80;;;3.33;;
61252;SDS011;47127;47.516;8.596;2023-02-01T00:43:42;8.27;;;3.63;;
61252;SDS011;47127;47.516;8.596;2023-02-01T00:46:08;8.55;;;3.92;;
61252;SDS011;47127;47.516;8.596;2023-02-01T00:48:35;10.00;;;3.78;;
61252;SDS011;47127;47.516;8.596;2023-02-01T00:51:01;9.15;;;4.13;;
61252;SDS011;47127;47.516;8.596;2023-02-01T00:53:31;12.02;;;4.10;;
61252;SDS011;47127;47.516;8.596;2023-02-01T00:55:57;8.70;;;4.03;;
61252;SDS011;47127;47.516;8.596;2023-02-01T00:58:23;9.75;;;3.50;;
61252;SDS011;47127;47.516;8.596;2023-02-01T01:00:56;8.60;;;3.80;;
61252;SDS011;47127;47.516;8.596;2023-02-01T01:03:29;9.13;;;4.03;;
61252;SDS011;47127;47.516;8.596;2023-02-01T01:05:58;12.00;;;4.13;;
61252;SDS011;47127;47.516;8.596;2023-02-01T01:08:25;8.40;;;4.03;;
61252;SDS011;47127;47.516;8.596;2023-02-01T01:10:51;9.30;;;3.72;;
61252;SDS011;47127;47.516;8.596;2023-02-01T01:13:17;8.65;;;3.80;;
61252;SDS011;47127;47.516;8.596;2023-02-01T01:15:42;8.18;;;3.85;;
61252;SDS011;47127;47.516;8.596;2023-02-01T01:18:08;9.38;;;4.10;;
61252;SDS011;47127;47.516;8.596;2023-02-01T01:20:34;9.38;;;3.80;;
61252;SDS011;47127;47.516;8.596;2023-02-01T01:23:01;12.25;;;4.60;;
61252;SDS011;47127;47.516;8.596;2023-02-01T01:25:27;7.32;;;3.58;;
61252;SDS011;47127;47.516;8.596;2023-02-01T01:27:53;11.00;;;4.32;;
61252;SDS011;47127;47.516;8.596;2023-02-01T01:30:18;11.48;;;4.00;;
61252;SDS011;47127;47.516;8.596;2023-02-01T01:32:44;8.18;;;3.88;;
61252;SDS011;47127;47.516;8.596;2023-02-01T01:35:10;9.07;;;3.88;;
61252;SDS011;47127;47.516;8.596;2023-02-01T01:37:36;10.60;;;4.00;;
61252;SDS011;47127;47.516;8.596;2023-02-01T01:40:02;9.73;;;3.70;;
61252;SDS011;47127;47.516;8.596;2023-02-01T01:42:29;8.55;;;3.80;;
61252;SDS011;47127;47.516;8.596;2023-02-01T01:44:58;10.07;;;3.80;;
61252;SDS011;47127;47.516;8.596;2023-02-01T01:47:36;10.05;;;4.30;;
61252;SDS011;47127;47.516;8.596;2023-02-01T01:50:05;10.15;;;4.28;;
61252;SDS011;47127;47.516;8.596;2023-02-01T01:52:34;9.95;;;4.75;;
61252;SDS011;47127;47.516;8.596;2023-02-01T01:55:01;9.35;;;4.57;;
61252;SDS011;47127;47.516;8.596;2023-02-01T01:57:35;10.63;;;4.72;;
61252;SDS011;47127;47.516;8.596;2023-02-01T02:00:09;10.05;;;4.70;;
61252;SDS011;47127;47.516;8.596;2023-02-01T02:02:37;11.20;;;4.50;;
61252;SDS011;47127;47.516;8.596;2023-02-01T02:05:05;12.52;;;4.82;;
61252;SDS011;47127;47.516;8.596;2023-02-01T02:07:35;13.15;;;4.85;;
61252;SDS011;47127;47.516;8.596;2023-02-01T02:10:05;9.95;;;4.22;;
61252;SDS011;47127;47.516;8.596;2023-02-01T02:12:32;11.77;;;4.30;;
61252;SDS011;47127;47.516;8.596;2023-02-01T02:14:58;13.40;;;4.63;;
61252;SDS011;47127;47.516;8.596;2023-02-01T02:17:30;10.60;;;4.28;;
61252;SDS011;47127;47.516;8.596;2023-02-01T02:43:22;10.70;;;5.00;;
61252;SDS011;47127;47.516;8.596;2023-02-01T02:45:41;10.77;;;4.38;;
61252;SDS011;47127;47.516;8.596;2023-02-01T02:48:43;10.25;;;4.57;;
61252;SDS011;47127;47.516;8.596;2023-02-01T02:54:11;9.68;;;4.65;;
61252;SDS011;47127;47.516;8.596;2023-02-01T02:57:06;12.23;;;4.65;;
61252;SDS011;47127;47.516;8.596;2023-02-01T02:59:53;11.80;;;4.78;;
61252;SDS011;47127;47.516;8.596;2023-02-01T03:02:41;10.68;;;4.88;;
61252;SDS011;47127;47.516;8.596;2023-02-01T03:05:31;9.30;;;4.13;;
61252;SDS011;47127;47.516;8.596;2023-02-01T03:08:14;10.32;;;4.05;;
61252;SDS011;47127;47.516;8.596;2023-02-01T03:10:56;9.98;;;4.45;;
61252;SDS011;47127;47.516;8.596;2023-02-01T03:18:51;14.52;;;5.93;;
61252;SDS011;47127;47.516;8.596;2023-02-01T03:21:33;12.48;;;5.72;;
61252;SDS011;47127;47.516;8.596;2023-02-01T03:32:42;10.35;;;5.22;;
61252;SDS011;47127;47.516;8.596;2023-02-01T03:35:36;12.40;;;5.65;;
61252;SDS011;47127;47.516;8.596;2023-02-01T03:38:11;11.50;;;5.20;;
61252;SDS011;47127;47.516;8.596;2023-02-01T03:40:38;11.80;;;5.63;;
61252;SDS011;47127;47.516;8.596;2023-02-01T03:43:06;11.65;;;5.40;;
61252;SDS011;47127;47.516;8.596;2023-02-01T03:45:39;14.57;;;5.68;;
61252;SDS011;47127;47.516;8.596;2023-02-01T03:48:08;13.75;;;5.20;;
61252;SDS011;47127;47.516;8.596;2023-02-01T03:50:36;12.07;;;5.50;;
61252;SDS011;47127;47.516;8.596;2023-02-01T03:53:08;12.18;;;5.60;;
61252;SDS011;47127;47.516;8.596;2023-02-01T03:55:39;13.52;;;5.63;;
61252;SDS011;47127;47.516;8.596;2023-02-01T03:58:07;12.75;;;5.68;;
61252;SDS011;47127;47.516;8.596;2023-02-01T04:00:50;13.65;;;5.55;;
61252;SDS011;47127;47.516;8.596;2023-02-01T04:03:15;14.50;;;6.07;;
61252;SDS011;47127;47.516;8.596;2023-02-01T04:05:41;11.88;;;5.35;;
61252;SDS011;47127;47.516;8.596;2023-02-01T04:08:06;11.55;;;6.28;;
61252;SDS011;47127;47.516;8.596;2023-02-01T04:10:32;13.15;;;6.20;;
61252;SDS011;47127;47.516;8.596;2023-02-01T04:12:57;11.85;;;5.88;;
61252;SDS011;47127;47.516;8.596;2023-02-01T04:15:23;14.57;;;5.95;;
61252;SDS011;47127;47.516;8.596;2023-02-01T04:17:49;10.10;;;5.43;;
61252;SDS011;47127;47.516;8.596;2023-02-01T04:20:14;14.05;;;6.35;;
61252;SDS011;47127;47.516;8.596;2023-02-01T04:22:40;13.57;;;5.95;;
61252;SDS011;47127;47.516;8.596;2023-02-01T04:25:06;11.05;;;4.88;;
61252;SDS011;47127;47.516;8.596;2023-02-01T04:27:33;11.45;;;4.80;;
61252;SDS011;47127;47.516;8.596;2023-02-01T04:29:58;13.65;;;5.97;;
61252;SDS011;47127;47.516;8.596;2023-02-01T04:32:24;12.13;;;5.88;;
61252;SDS011;47127;47.516;8.596;2023-02-01T04:34:49;11.05;;;5.03;;
61252;SDS011;47127;47.516;8.596;2023-02-01T04:37:15;11.73;;;5.30;;
61252;SDS011;47127;47.516;8.596;2023-02-01T04:39:40;11.80;;;5.03;;
61252;SDS011;47127;47.516;8.596;2023-02-01T04:42:06;12.77;;;5.20;;
61252;SDS011;47127;47.516;8.596;2023-02-01T04:44:31;8.82;;;4.72;;
61252;SDS011;47127;47.516;8.596;2023-02-01T04:46:57;14.77;;;5.65;;
61252;SDS011;47127;47.516;8.596;2023-02-01T04:49:23;11.10;;;5.10;;
61252;SDS011;47127;47.516;8.596;2023-02-01T04:51:50;13.00;;;5.30;;
61252;SDS011;47127;47.516;8.596;2023-02-01T04:54:16;11.38;;;4.80;;
61252;SDS011;47127;47.516;8.596;2023-02-01T04:56:41;10.60;;;4.75;;
61252;SDS011;47127;47.516;8.596;2023-02-01T04:59:07;11.55;;;5.82;;
61252;SDS011;47127;47.516;8.596;2023-02-01T05:01:32;12.60;;;5.40;;
61252;SDS011;47127;47.516;8.596;2023-02-01T05:03:58;11.00;;;4.90;;
61252;SDS011;47127;47.516;8.596;2023-02-01T05:06:23;14.00;;;5.75;;
61252;SDS011;47127;47.516;8.596;2023-02-01T05:08:49;11.18;;;5.38;;
61252;SDS011;47127;47.516;8.596;2023-02-01T05:11:15;12.32;;;5.95;;
61252;SDS011;47127;47.516;8.596;2023-02-01T05:14:01;10.73;;;4.97;;
61252;SDS011;47127;47.516;8.596;2023-02-01T05:16:26;14.75;;;6.20;;
61252;SDS011;47127;47.516;8.596;2023-02-01T05:18:52;12.23;;;4.95;;
61252;SDS011;47127;47.516;8.596;2023-02-01T05:21:18;11.23;;;5.20;;
61252;SDS011;47127;47.516;8.596;2023-02-01T05:23:44;13.05;;;6.55;;
61252;SDS011;47127;47.516;8.596;2023-02-01T05:26:28;11.00;;;5.03;;
61252;SDS011;47127;47.516;8.596;2023-02-01T05:28:53;9.65;;;5.15;;
61252;SDS011;47127;47.516;8.596;2023-02-01T05:31:19;14.07;;;5.63;;
61252;SDS011;47127;47.516;8.596;2023-02-01T05:33:45;12.38;;;6.00;;
61252;SDS011;47127;47.516;8.596;2023-02-01T05:36:10;10.38;;;5.07;;
61252;SDS011;47127;47.516;8.596;2023-02-01T05:38:36;13.05;;;6.45;;
61252;SDS011;47127;47.516;8.596;2023-02-01T05:41:01;11.25;;;5.20;;
61252;SDS011;47127;47.516;8.596;2023-02-01T05:43:27;11.25;;;5.18;;
61252;SDS011;47127;47.516;8.596;2023-02-01T05:45:53;11.25;;;5.18;;
61252;SDS011;47127;47.516;8.596;2023-02-01T05:48:18;14.73;;;5.60;;
61252;SDS011;47127;47.516;8.596;2023-02-01T05:50:44;11.73;;;5.40;;
61252;SDS011;47127;47.516;8.596;2023-02-01T05:53:10;11.90;;;5.13;;
61252;SDS011;47127;47.516;8.596;2023-02-01T05:55:36;12.65;;;5.03;;
61252;SDS011;47127;47.516;8.596;2023-02-01T05:58:02;9.65;;;5.03;;
61252;SDS011;47127;47.516;8.596;2023-02-01T06:00:28;12.48;;;4.63;;
61252;SDS011;47127;47.516;8.596;2023-02-01T06:02:53;13.07;;;5.18;;
61252;SDS011;47127;47.516;8.596;2023-02-01T06:05:19;10.00;;;4.75;;
61252;SDS011;47127;47.516;8.596;2023-02-01T06:07:44;10.40;;;4.70;;
61252;SDS011;47127;47.516;8.596;2023-02-01T06:10:10;10.82;;;4.82;;
61252;SDS011;47127;47.516;8.596;2023-02-01T06:12:35;13.10;;;4.70;;
61252;SDS011;47127;47.516;8.596;2023-02-01T06:15:01;9.02;;;4.32;;
61252;SDS011;47127;47.516;8.596;2023-02-01T06:17:27;10.82;;;4.28;;
61252;SDS011;47127;47.516;8.596;2023-02-01T06:19:52;11.32;;;4.53;;
61252;SDS011;47127;47.516;8.596;2023-02-01T06:22:18;14.55;;;5.82;;
61252;SDS011;47127;47.516;8.596;2023-02-01T06:24:43;10.55;;;4.30;;
61252;SDS011;47127;47.516;8.596;2023-02-01T06:27:09;8.90;;;4.40;;
61252;SDS011;47127;47.516;8.596;2023-02-01T06:29:35;9.18;;;4.22;;
61252;SDS011;47127;47.516;8.596;2023-02-01T06:32:00;9.48;;;3.90;;
61252;SDS011;47127;47.516;8.596;2023-02-01T06:34:26;11.90;;;4.28;;
61252;SDS011;47127;47.516;8.596;2023-02-01T06:36:51;8.48;;;3.60;;
61252;SDS011;47127;47.516;8.596;2023-02-01T06:39:18;13.45;;;5.45;;
61252;SDS011;47127;47.516;8.596;2023-02-01T06:41:46;10.93;;;3.90;;
61252;SDS011;47127;47.516;8.596;2023-02-01T06:44:13;8.02;;;3.60;;
61252;SDS011;47127;47.516;8.596;2023-02-01T06:46:39;7.97;;;3.85;;
61252;SDS011;47127;47.516;8.596;2023-02-01T06:49:05;10.93;;;3.88;;
61252;SDS011;47127;47.516;8.596;2023-02-01T06:51:30;9.70;;;4.15;;
61252;SDS011;47127;47.516;8.596;2023-02-01T06:53:56;9.60;;;4.00;;
61252;SDS011;47127;47.516;8.596;2023-02-01T06:56:22;11.80;;;4.13;;
61252;SDS011;47127;47.516;8.596;2023-02-01T06:58:49;10.95;;;4.38;;
61252;SDS011;47127;47.516;8.596;2023-02-01T07:01:15;9.57;;;3.85;;
61252;SDS011;47127;47.516;8.596;2023-02-01T07:03:41;11.20;;;4.10;;
61252;SDS011;47127;47.516;8.596;2023-02-01T07:06:07;9.10;;;4.35;;
61252;SDS011;47127;47.516;8.596;2023-02-01T07:08:34;11.77;;;5.40;;
61252;SDS011;47127;47.516;8.596;2023-02-01T07:11:09;10.88;;;4.70;;
61252;SDS011;47127;47.516;8.596;2023-02-01T07:13:36;11.52;;;4.78;;
61252;SDS011;47127;47.516;8.596;2023-02-01T07:16:03;9.32;;;4.32;;
61252;SDS011;47127;47.516;8.596;2023-02-01T07:18:30;12.82;;;5.05;;
61252;SDS011;47127;47.516;8.596;2023-02-01T07:20:57;12.30;;;4.43;;
61252;SDS011;47127;47.516;8.596;2023-02-01T07:23:23;13.07;;;5.97;;
61252;SDS011;47127;47.516;8.596;2023-02-01T07:25:48;9.75;;;4.70;;
61252;SDS011;47127;47.516;8.596;2023-02-01T07:28:17;13.75;;;5.28;;
61252;SDS011;47127;47.516;8.596;2023-02-01T07:30:43;13.25;;;5.10;;
61252;SDS011;47127;47.516;8.596;2023-02-01T07:33:15;14.95;;;5.38;;
61252;SDS011;47127;47.516;8.596;2023-02-01T07:35:45;15.93;;;5.70;;
61252;SDS011;47127;47.516;8.596;2023-02-01T07:38:11;16.45;;;6.38;;
61252;SDS011;47127;47.516;8.596;2023-02-01T07:40:36;13.18;;;6.28;;
61252;SDS011;47127;47.516;8.596;2023-02-01T07:43:02;16.60;;;6.28;;
61252;SDS011;47127;47.516;8.596;2023-02-01T07:45:27;13.10;;;6.57;;
61252;SDS011;47127;47.516;8.596;2023-02-01T07:47:53;15.43;;;7.40;;
61252;SDS011;47127;47.516;8.596;2023-02-01T07:50:18;16.40;;;6.68;;
61252;SDS011;47127;47.516;8.596;2023-02-01T07:52:44;17.33;;;8.40;;
61252;SDS011;47127;47.516;8.596;2023-02-01T07:55:10;17.23;;;8.60;;
61252;SDS011;47127;47.516;8.596;2023-02-01T07:57:35;24.13;;;10.20;;
61252;SDS011;47127;47.516;8.596;2023-02-01T08:00:01;21.90;;;9.05;;
61252;SDS011;47127;47.516;8.596;2023-02-01T08:02:46;19.35;;;7.95;;
61252;SDS011;47127;47.516;8.596;2023-02-01T08:05:12;22.63;;;10.43;;
61252;SDS011;47127;47.516;8.596;2023-02-01T08:07:38;18.30;;;9.05;;
61252;SDS011;47127;47.516;8.596;2023-02-01T08:10:03;20.38;;;10.75;;
61252;SDS011;47127;47.516;8.596;2023-02-01T08:12:31;18.13;;;8.73;;
61252;SDS011;47127;47.516;8.596;2023-02-01T08:14:57;17.60;;;8.43;;
61252;SDS011;47127;47.516;8.596;2023-02-01T08:17:23;21.88;;;9.40;;
61252;SDS011;47127;47.516;8.596;2023-02-01T08:19:48;21.27;;;9.63;;
61252;SDS011;47127;47.516;8.596;2023-02-01T08:22:14;19.60;;;9.07;;
61252;SDS011;47127;47.516;8.596;2023-02-01T08:24:39;19.15;;;8.65;;
61252;SDS011;47127;47.516;8.596;2023-02-01T08:27:06;19.60;;;9.10;;
61252;SDS011;47127;47.516;8.596;2023-02-01T08:29:31;18.73;;;8.13;;
61252;SDS011;47127;47.516;8.596;2023-02-01T08:31:57;18.45;;;8.80;;
61252;SDS011;47127;47.516;8.596;2023-02-01T08:34:23;17.00;;;8.40;;
61252;SDS011;47127;47.516;8.596;2023-02-01T08:36:48;18.13;;;8.80;;
61252;SDS011;47127;47.516;8.596;2023-02-01T08:39:16;16.73;;;8.55;;
61252;SDS011;47127;47.516;8.596;2023-02-01T08:41:42;17.90;;;9.15;;
61252;SDS011;47127;47.516;8.596;2023-02-01T08:44:27;18.55;;;8.07;;
61252;SDS011;47127;47.516;8.596;2023-02-01T08:46:53;15.48;;;7.97;;
61252;SDS011;47127;47.516;8.596;2023-02-01T08:49:18;16.90;;;8.23;;
61252;SDS011;47127;47.516;8.596;2023-02-01T08:51:44;37.35;;;17.10;;
61252;SDS011;47127;47.516;8.596;2023-02-01T08:54:09;47.92;;;24.92;;
61252;SDS011;47127;47.516;8.596;2023-02-01T08:56:35;84.22;;;44.35;;
61252;SDS011;47127;47.516;8.596;2023-02-01T08:59:00;22.73;;;12.07;;
61252;SDS011;47127;47.516;8.596;2023-02-01T09:01:26;30.73;;;15.13;;
61252;SDS011;47127;47.516;8.596;2023-02-01T09:03:51;17.13;;;7.63;;
61252;SDS011;47127;47.516;8.596;2023-02-01T09:06:17;19.65;;;7.75;;
61252;SDS011;47127;47.516;8.596;2023-02-01T09:08:42;16.27;;;7.22;;
61252;SDS011;47127;47.516;8.596;2023-02-01T09:11:12;12.88;;;6.05;;
61252;SDS011;47127;47.516;8.596;2023-02-01T09:13:39;18.55;;;7.07;;
61252;SDS011;47127;47.516;8.596;2023-02-01T09:16:05;18.13;;;8.07;;
61252;SDS011;47127;47.516;8.596;2023-02-01T09:18:31;15.52;;;6.05;;
61252;SDS011;47127;47.516;8.596;2023-02-01T09:20:56;13.02;;;6.05;;
61252;SDS011;47127;47.516;8.596;2023-02-01T09:23:22;14.63;;;5.72;;
61252;SDS011;47127;47.516;8.596;2023-02-01T09:25:47;13.77;;;5.75;;
61252;SDS011;47127;47.516;8.596;2023-02-01T09:28:16;13.38;;;6.07;;
61252;SDS011;47127;47.516;8.596;2023-02-01T09:30:42;13.07;;;5.32;;
61252;SDS011;47127;47.516;8.596;2023-02-01T09:33:07;12.02;;;5.25;;
61252;SDS011;47127;47.516;8.596;2023-02-01T09:35:33;12.77;;;5.22;;
61252;SDS011;47127;47.516;8.596;2023-02-01T09:37:59;11.23;;;5.20;;
61252;SDS011;47127;47.516;8.596;2023-02-01T09:40:24;10.60;;;5.18;;
61252;SDS011;47127;47.516;8.596;2023-02-01T09:48:38;10.13;;;4.50;;
61252;SDS011;47127;47.516;8.596;2023-02-01T09:51:11;12.88;;;4.70;;
61252;SDS011;47127;47.516;8.596;2023-02-01T09:53:42;9.45;;;4.38;;
61252;SDS011;47127;47.516;8.596;2023-02-01T09:56:12;15.90;;;7.40;;
61252;SDS011;47127;47.516;8.596;2023-02-01T09:58:55;13.10;;;5.53;;
61252;SDS011;47127;47.516;8.596;2023-02-01T10:01:29;11.30;;;5.45;;
61252;SDS011;47127;47.516;8.596;2023-02-01T10:03:58;12.40;;;4.65;;
61252;SDS011;47127;47.516;8.596;2023-02-01T10:15:11;10.73;;;3.90;;
61252;SDS011;47127;47.516;8.596;2023-02-01T10:20:56;16.77;;;7.95;;
61252;SDS011;47127;47.516;8.596;2023-02-01T10:23:41;14.10;;;5.47;;
61252;SDS011;47127;47.516;8.596;2023-02-01T10:26:24;14.68;;;6.22;;
61252;SDS011;47127;47.516;8.596;2023-02-01T10:28:57;10.55;;;3.88;;
61252;SDS011;47127;47.516;8.596;2023-02-01T10:31:26;11.95;;;4.43;;
61252;SDS011;47127;47.516;8.596;2023-02-01T10:33:56;8.38;;;4.07;;
61252;SDS011;47127;47.516;8.596;2023-02-01T10:36:50;9.75;;;4.15;;
61252;SDS011;47127;47.516;8.596;2023-02-01T10:39:34;8.50;;;3.80;;
61252;SDS011;47127;47.516;8.596;2023-02-01T10:42:01;9.25;;;3.70;;
61252;SDS011;47127;47.516;8.596;2023-02-01T10:44:28;7.18;;;3.33;;
61252;SDS011;47127;47.516;8.596;2023-02-01T10:46:56;24.02;;;12.45;;
61252;SDS011;47127;47.516;8.596;2023-02-01T10:49:24;23.30;;;12.40;;
61252;SDS011;47127;47.516;8.596;2023-02-01T10:54:33;9.13;;;3.55;;
61252;SDS011;47127;47.516;8.596;2023-02-01T10:57:00;11.23;;;3.83;;
61252;SDS011;47127;47.516;8.596;2023-02-01T10:59:27;11.98;;;5.90;;
61252;SDS011;47127;47.516;8.596;2023-02-01T11:01:59;8.75;;;3.78;;
61252;SDS011;47127;47.516;8.596;2023-02-01T11:04:26;9.43;;;4.22;;
61252;SDS011;47127;47.516;8.596;2023-02-01T11:07:07;7.93;;;3.88;;
61252;SDS011;47127;47.516;8.596;2023-02-01T11:09:40;8.90;;;3.60;;
61252;SDS011;47127;47.516;8.596;2023-02-01T11:12:20;11.05;;;3.80;;
61252;SDS011;47127;47.516;8.596;2023-02-01T11:14:49;9.23;;;4.22;;
61252;SDS011;47127;47.516;8.596;2023-02-01T11:19:44;7.60;;;3.63;;
61252;SDS011;47127;47.516;8.596;2023-02-01T11:22:11;8.73;;;3.65;;
61252;SDS011;47127;47.516;8.596;2023-02-01T11:24:38;8.82;;;4.03;;
61252;SDS011;47127;47.516;8.596;2023-02-01T11:27:12;10.38;;;4.50;;
61252;SDS011;47127;47.516;8.596;2023-02-01T11:29:42;9.53;;;3.50;;
61252;SDS011;47127;47.516;8.596;2023-02-01T11:32:10;8.85;;;4.70;;
61252;SDS011;47127;47.516;8.596;2023-02-01T11:34:40;60.03;;;30.52;;
61252;SDS011;47127;47.516;8.596;2023-02-01T11:37:15;9.85;;;3.88;;
61252;SDS011;47127;47.516;8.596;2023-02-01T11:39:57;7.07;;;2.72;;
61252;SDS011;47127;47.516;8.596;2023-02-01T11:42:24;7.88;;;2.65;;
61252;SDS011;47127;47.516;8.596;2023-02-01T11:44:51;8.20;;;3.15;;
61252;SDS011;47127;47.516;8.596;2023-02-01T11:47:41;20.50;;;11.00;;
61252;SDS011;47127;47.516;8.596;2023-02-01T11:50:25;17.67;;;6.22;;
61252;SDS011;47127;47.516;8.596;2023-02-01T12:04:17;10.38;;;4.20;;
61252;SDS011;47127;47.516;8.596;2023-02-01T12:09:54;8.13;;;3.00;;
61252;SDS011;47127;47.516;8.596;2023-02-01T12:12:42;8.05;;;2.72;;
61252;SDS011;47127;47.516;8.596;2023-02-01T12:15:36;5.80;;;2.97;;
61252;SDS011;47127;47.516;8.596;2023-02-01T12:18:32;8.55;;;3.40;;
61252;SDS011;47127;47.516;8.596;2023-02-01T12:24:25;6.05;;;2.28;;
61252;SDS011;47127;47.516;8.596;2023-02-01T12:29:47;8.23;;;3.08;;
61252;SDS011;47127;47.516;8.596;2023-02-01T12:34:57;9.10;;;2.67;;
61252;SDS011;47127;47.516;8.596;2023-02-01T12:37:42;5.93;;;3.10;;
61252;SDS011;47127;47.516;8.596;2023-02-01T12:46:15;5.25;;;2.72;;
61252;SDS011;47127;47.516;8.596;2023-02-01T12:48:57;8.45;;;2.53;;
61252;SDS011;47127;47.516;8.596;2023-02-01T12:51:38;5.97;;;2.20;;
61252;SDS011;47127;47.516;8.596;2023-02-01T12:54:18;7.55;;;2.67;;
61252;SDS011;47127;47.516;8.596;2023-02-01T12:56:59;4.90;;;2.40;;
61252;SDS011;47127;47.516;8.596;2023-02-01T13:02:01;4.57;;;1.77;;
61252;SDS011;47127;47.516;8.596;2023-02-01T13:04:55;4.85;;;1.95;;
61252;SDS011;47127;47.516;8.596;2023-02-01T13:10:18;6.32;;;1.80;;
61252;SDS011;47127;47.516;8.596;2023-02-01T13:12:50;5.75;;;1.58;;
61252;SDS011;47127;47.516;8.596;2023-02-01T13:15:21;4.50;;;1.85;;
61252;SDS011;47127;47.516;8.596;2023-02-01T13:17:51;9.60;;;2.33;;
61252;SDS011;47127;47.516;8.596;2023-02-01T13:23:02;11.45;;;2.40;;
61252;SDS011;47127;47.516;8.596;2023-02-01T13:25:46;9.65;;;2.35;;
61252;SDS011;47127;47.516;8.596;2023-02-01T13:28:39;6.55;;;2.10;;
61252;SDS011;47127;47.516;8.596;2023-02-01T13:42:25;6.78;;;2.25;;
61252;SDS011;47127;47.516;8.596;2023-02-01T13:45:34;8.60;;;2.17;;
61252;SDS011;47127;47.516;8.596;2023-02-01T13:47:44;4.95;;;1.40;;
61252;SDS011;47127;47.516;8.596;2023-02-01T13:52:54;10.75;;;1.48;;
61252;SDS011;47127;47.516;8.596;2023-02-01T13:55:25;7.65;;;1.38;;
61252;SDS011;47127;47.516;8.596;2023-02-01T13:58:02;7.60;;;1.35;;
61252;SDS011;47127;47.516;8.596;2023-02-01T14:00:47;6.07;;;1.75;;
61252;SDS011;47127;47.516;8.596;2023-02-01T14:03:17;13.93;;;1.73;;
61252;SDS011;47127;47.516;8.596;2023-02-01T14:08:12;7.18;;;1.73;;
61252;SDS011;47127;47.516;8.596;2023-02-01T14:10:49;22.35;;;7.13;;
61252;SDS011;47127;47.516;8.596;2023-02-01T14:13:42;6.45;;;1.42;;
61252;SDS011;47127;47.516;8.596;2023-02-01T14:16:11;10.15;;;1.75;;
61252;SDS011;47127;47.516;8.596;2023-02-01T14:21:17;7.45;;;1.67;;
61252;SDS011;47127;47.516;8.596;2023-02-01T14:23:47;4.15;;;1.02;;
61252;SDS011;47127;47.516;8.596;2023-02-01T14:26:23;8.25;;;1.83;;
61252;SDS011;47127;47.516;8.596;2023-02-01T14:29:00;25.42;;;9.32;;
61252;SDS011;47127;47.516;8.596;2023-02-01T14:34:26;8.57;;;1.02;;
61252;SDS011;47127;47.516;8.596;2023-02-01T14:36:58;4.93;;;1.25;;
61252;SDS011;47127;47.516;8.596;2023-02-01T14:44:39;11.00;;;1.35;;
61252;SDS011;47127;47.516;8.596;2023-02-01T14:47:38;7.10;;;1.75;;
61252;SDS011;47127;47.516;8.596;2023-02-01T14:50:00;3.55;;;1.10;;
61252;SDS011;47127;47.516;8.596;2023-02-01T14:52:45;6.22;;;1.48;;
61252;SDS011;47127;47.516;8.596;2023-02-01T14:55:36;7.30;;;1.60;;
61252;SDS011;47127;47.516;8.596;2023-02-01T15:01:32;7.00;;;1.85;;
61252;SDS011;47127;47.516;8.596;2023-02-01T15:06:33;4.90;;;1.15;;
61252;SDS011;47127;47.516;8.596;2023-02-01T15:09:09;8.93;;;1.30;;
61252;SDS011;47127;47.516;8.596;2023-02-01T15:14:28;6.35;;;1.48;;
61252;SDS011;47127;47.516;8.596;2023-02-01T15:16:59;7.47;;;1.23;;
61252;SDS011;47127;47.516;8.596;2023-02-01T15:19:25;5.45;;;1.98;;
61252;SDS011;47127;47.516;8.596;2023-02-01T15:21:54;12.07;;;1.40;;
61252;SDS011;47127;47.516;8.596;2023-02-01T15:24:22;6.55;;;1.80;;
61252;SDS011;47127;47.516;8.596;2023-02-01T15:26:53;9.18;;;1.83;;
61252;SDS011;47127;47.516;8.596;2023-02-01T15:29:33;11.77;;;2.92;;
61252;SDS011;47127;47.516;8.596;2023-02-01T15:32:01;5.63;;;1.17;;
61252;SDS011;47127;47.516;8.596;2023-02-01T15:37:16;7.00;;;1.90;;
61252;SDS011;47127;47.516;8.596;2023-02-01T15:42:41;12.80;;;2.20;;
61252;SDS011;47127;47.516;8.596;2023-02-01T15:45:17;8.68;;;1.63;;
61252;SDS011;47127;47.516;8.596;2023-02-01T15:47:46;5.88;;;1.33;;
61252;SDS011;47127;47.516;8.596;2023-02-01T15:50:16;6.65;;;1.73;;
61252;SDS011;47127;47.516;8.596;2023-02-01T15:52:45;9.55;;;1.70;;
61252;SDS011;47127;47.516;8.596;2023-02-01T15:57:44;5.22;;;1.48;;
61252;SDS011;47127;47.516;8.596;2023-02-01T16:00:23;7.50;;;1.77;;
61252;SDS011;47127;47.516;8.596;2023-02-01T16:02:56;18.98;;;8.23;;
61252;SDS011;47127;47.516;8.596;2023-02-01T16:05:40;13.85;;;2.70;;
61252;SDS011;47127;47.516;8.596;2023-02-01T16:10:39;12.38;;;3.45;;
61252;SDS011;47127;47.516;8.596;2023-02-01T16:13:06;11.05;;;1.50;;
61252;SDS011;47127;47.516;8.596;2023-02-01T16:15:32;4.95;;;1.42;;
61252;SDS011;47127;47.516;8.596;2023-02-01T16:17:57;5.18;;;1.45;;
61252;SDS011;47127;47.516;8.596;2023-02-01T16:20:23;6.35;;;1.35;;
61252;SDS011;47127;47.516;8.596;2023-02-01T16:22:49;7.97;;;1.48;;
61252;SDS011;47127;47.516;8.596;2023-02-01T16:25:14;7.40;;;1.67;;
61252;SDS011;47127;47.516;8.596;2023-02-01T16:27:40;11.50;;;1.45;;
61252;SDS011;47127;47.516;8.596;2023-02-01T16:30:05;9.70;;;1.65;;
61252;SDS011;47127;47.516;8.596;2023-02-01T16:32:34;6.32;;;1.48;;
61252;SDS011;47127;47.516;8.596;2023-02-01T16:35:03;8.18;;;1.58;;
61252;SDS011;47127;47.516;8.596;2023-02-01T16:37:43;4.05;;;1.30;;
61252;SDS011;47127;47.516;8.596;2023-02-01T16:40:12;9.38;;;1.63;;
61252;SDS011;47127;47.516;8.596;2023-02-01T16:42:39;17.58;;;1.67;;
61252;SDS011;47127;47.516;8.596;2023-02-01T16:45:05;5.45;;;1.30;;
61252;SDS011;47127;47.516;8.596;2023-02-01T16:47:32;4.22;;;1.35;;
61252;SDS011;47127;47.516;8.596;2023-02-01T16:49:58;4.75;;;1.33;;
61252;SDS011;47127;47.516;8.596;2023-02-01T16:52:24;6.47;;;1.38;;
61252;SDS011;47127;47.516;8.596;2023-02-01T16:54:51;5.82;;;1.30;;
61252;SDS011;47127;47.516;8.596;2023-02-01T16:57:18;5.65;;;1.10;;
61252;SDS011;47127;47.516;8.596;2023-02-01T16:59:47;4.90;;;1.13;;
61252;SDS011;47127;47.516;8.596;2023-02-01T17:02:16;6.10;;;1.27;;
61252;SDS011;47127;47.516;8.596;2023-02-01T17:04:44;7.63;;;1.45;;
61252;SDS011;47127;47.516;8.596;2023-02-01T17:07:13;5.55;;;1.27;;
61252;SDS011;47127;47.516;8.596;2023-02-01T17:09:43;7.75;;;1.20;;
61252;SDS011;47127;47.516;8.596;2023-02-01T17:12:26;9.60;;;1.70;;
61252;SDS011;47127;47.516;8.596;2023-02-01T17:14:54;7.10;;;1.52;;
61252;SDS011;47127;47.516;8.596;2023-02-01T17:17:21;5.65;;;2.05;;
61252;SDS011;47127;47.516;8.596;2023-02-01T17:19:49;6.70;;;1.50;;
61252;SDS011;47127;47.516;8.596;2023-02-01T17:22:18;6.78;;;1.38;;
61252;SDS011;47127;47.516;8.596;2023-02-01T17:24:44;9.57;;;1.35;;